sensor_id;sensor_type;location;lat;lon;timestamp;pressure;altitude;pressure_sealevel;temperature;humidity
23619;BME280;18207;32.078;34.818;2023-04-26T00:01:51;100851.09;;;25.84;41.35
23619;BME280;18207;32.078;34.818;2023-04-26T00:04:24;100844.56;;;25.80;41.44
23619;BME280;18207;32.078;34.818;2023-04-26T00:06:56;100846.47;;;25.76;41.39
23619;BME280;18207;32.078;34.818;2023-04-26T00:09:27;100839.94;;;25.72;41.29
23619;BME280;18207;32.078;34.818;2023-04-26T00:11:58;100849.09;;;25.69;41.41
23619;BME280;18207;32.078;34.818;2023-04-26T00:14:28;100843.00;;;25.67;41.39
23619;BME280;18207;32.078;34.818;2023-04-26T00:16:58;100841.31;;;25.63;41.35
23619;BME280;18207;32.078;34.818;2023-04-26T00:19:30;100846.06;;;25.59;41.47
23619;BME280;18207;32.078;34.818;2023-04-26T00:22:01;100842.31;;;25.55;41.40
23619;BME280;18207;32.078;34.818;2023-04-26T00:24:32;100846.25;;;25.50;41.60
23619;BME280;18207;32.078;34.818;2023-04-26T00:27:02;100850.63;;;25.48;41.53
23619;BME280;18207;32.078;34.818;2023-04-26T00:29:36;100846.09;;;25.43;41.44
23619;BME280;18207;32.078;34.818;2023-04-26T00:32:06;100841.97;;;25.41;41.39
23619;BME280;18207;32.078;34.818;2023-04-26T00:34:39;100847.19;;;25.39;41.47
23619;BME280;18207;32.078;34.818;2023-04-26T00:37:09;100839.47;;;25.36;41.42
23619;BME280;18207;32.078;34.818;2023-04-26T00:39:39;100832.59;;;25.33;41.31
23619;BME280;18207;32.078;34.818;2023-04-26T00:42:09;100835.75;;;25.32;41.44
23619;BME280;18207;32.078;34.818;2023-04-26T00:44:39;100830.88;;;25.29;41.45
23619;BME280;18207;32.078;34.818;2023-04-26T00:47:10;100825.97;;;25.26;41.37
23619;BME280;18207;32.078;34.818;2023-04-26T00:49:42;100830.78;;;25.25;41.42
23619;BME280;18207;32.078;34.818;2023-04-26T00:52:13;100830.31;;;25.23;41.44
23619;BME280;18207;32.078;34.818;2023-04-26T00:54:43;100835.13;;;25.23;41.60
23619;BME280;18207;32.078;34.818;2023-04-26T00:57:13;100821.44;;;25.21;41.49
23619;BME280;18207;32.078;34.818;2023-04-26T00:59:43;100839.47;;;25.20;41.63
23619;BME280;18207;32.078;34.818;2023-04-26T01:02:14;100837.03;;;25.19;41.64
23619;BME280;18207;32.078;34.818;2023-04-26T01:04:46;100827.44;;;25.20;41.06
23619;BME280;18207;32.078;34.818;2023-04-26T01:07:16;100831.41;;;25.19;41.67
23619;BME280;18207;32.078;34.818;2023-04-26T01:09:48;100828.94;;;25.17;41.54
23619;BME280;18207;32.078;34.818;2023-04-26T01:12:19;100826.97;;;25.18;41.38
23619;BME280;18207;32.078;34.818;2023-04-26T01:14:50;100819.72;;;25.17;41.60
23619;BME280;18207;32.078;34.818;2023-04-26T01:17:20;100830.13;;;25.16;41.38
23619;BME280;18207;32.078;34.818;2023-04-26T01:19:52;100819.25;;;25.15;41.56
23619;BME280;18207;32.078;34.818;2023-04-26T01:22:22;100823.25;;;25.14;41.32
23619;BME280;18207;32.078;34.818;2023-04-26T01:24:55;100808.00;;;25.15;41.65
23619;BME280;18207;32.078;34.818;2023-04-26T01:27:25;100824.41;;;25.13;41.80
23619;BME280;18207;32.078;34.818;2023-04-26T01:29:55;100826.44;;;25.12;41.50
23619;BME280;18207;32.078;34.818;2023-04-26T01:32:25;100833.22;;;25.11;41.30
23619;BME280;18207;32.078;34.818;2023-04-26T01:34:55;100829.13;;;25.09;41.49
23619;BME280;18207;32.078;34.818;2023-04-26T01:37:25;100830.31;;;25.08;41.40
23619;BME280;18207;32.078;34.818;2023-04-26T01:39:57;100825.78;;;25.04;41.12
23619;BME280;18207;32.078;34.818;2023-04-26T01:42:27;100832.94;;;25.01;40.98
23619;BME280;18207;32.078;34.818;2023-04-26T01:44:57;100832.03;;;24.97;41.51
23619;BME280;18207;32.078;34.818;2023-04-26T01:47:27;100831.19;;;24.97;41.14
23619;BME280;18207;32.078;34.818;2023-04-26T01:49:57;100830.41;;;24.96;41.54
23619;BME280;18207;32.078;34.818;2023-04-26T01:52:27;100827.13;;;24.94;41.46
23619;BME280;18207;32.078;34.818;2023-04-26T01:54:59;100831.94;;;24.94;41.43
23619;BME280;18207;32.078;34.818;2023-04-26T01:57:29;100833.13;;;24.93;41.51
23619;BME280;18207;32.078;34.818;2023-04-26T01:59:59;100826.66;;;24.92;41.39
23619;BME280;18207;32.078;34.818;2023-04-26T02:02:29;100831.50;;;24.92;41.41
23619;BME280;18207;32.078;34.818;2023-04-26T02:04:59;100836.31;;;24.91;41.59
23619;BME280;18207;32.078;34.818;2023-04-26T02:07:30;100841.94;;;24.91;41.62
23619;BME280;18207;32.078;34.818;2023-04-26T02:10:02;100839.13;;;24.91;41.18
23619;BME280;18207;32.078;34.818;2023-04-26T02:12:33;100838.28;;;24.91;41.32
23619;BME280;18207;32.078;34.818;2023-04-26T02:15:03;100834.66;;;24.90;41.51
23619;BME280;18207;32.078;34.818;2023-04-26T02:17:34;100826.25;;;24.90;41.34
23619;BME280;18207;32.078;34.818;2023-04-26T02:20:05;100835.00;;;24.89;41.33
23619;BME280;18207;32.078;34.818;2023-04-26T02:22:37;100824.94;;;24.88;41.47
23619;BME280;18207;32.078;34.818;2023-04-26T02:25:09;100823.69;;;24.85;41.33
23619;BME280;18207;32.078;34.818;2023-04-26T02:27:40;100817.59;;;24.83;41.49
23619;BME280;18207;32.078;34.818;2023-04-26T02:30:11;100821.59;;;24.82;41.63
23619;BME280;18207;32.078;34.818;2023-04-26T02:32:41;100821.59;;;24.82;41.45
23619;BME280;18207;32.078;34.818;2023-04-26T02:35:12;100819.97;;;24.81;41.34
23619;BME280;18207;32.078;34.818;2023-04-26T02:37:42;100823.13;;;24.80;41.34
23619;BME280;18207;32.078;34.818;2023-04-26T02:40:18;100828.75;;;24.80;41.24
23619;BME280;18207;32.078;34.818;2023-04-26T02:42:49;100832.75;;;24.79;41.42
23619;BME280;18207;32.078;34.818;2023-04-26T02:45:19;100826.31;;;24.78;41.56
23619;BME280;18207;32.078;34.818;2023-04-26T02:47:48;100837.56;;;24.78;41.44
23619;BME280;18207;32.078;34.818;2023-04-26T02:50:19;100840.38;;;24.78;41.32
23619;BME280;18207;32.078;34.818;2023-04-26T02:52:48;100836.72;;;24.78;41.56
23619;BME280;18207;32.078;34.818;2023-04-26T02:55:20;100835.94;;;24.77;41.46
23619;BME280;18207;32.078;34.818;2023-04-26T02:57:50;100831.47;;;24.76;41.58
23619;BME280;18207;32.078;34.818;2023-04-26T03:00:21;100843.91;;;24.75;41.24
23619;BME280;18207;32.078;34.818;2023-04-26T03:02:52;100844.72;;;24.76;41.31
23619;BME280;18207;32.078;34.818;2023-04-26T03:05:22;100843.91;;;24.75;41.34
23619;BME280;18207;32.078;34.818;2023-04-26T03:07:53;100845.91;;;24.75;41.36
23619;BME280;18207;32.078;34.818;2023-04-26T03:10:24;100850.59;;;24.71;41.39
23619;BME280;18207;32.078;34.818;2023-04-26T03:12:55;100862.22;;;24.69;41.38
23619;BME280;18207;32.078;34.818;2023-04-26T03:15:24;100867.00;;;24.69;41.42
23619;BME280;18207;32.078;34.818;2023-04-26T03:17:54;100862.56;;;24.68;41.49
23619;BME280;18207;32.078;34.818;2023-04-26T03:20:25;100861.75;;;24.67;41.60
23619;BME280;18207;32.078;34.818;2023-04-26T03:22:54;100866.56;;;24.67;41.55
23619;BME280;18207;32.078;34.818;2023-04-26T03:25:26;100872.19;;;24.67;41.76
23619;BME280;18207;32.078;34.818;2023-04-26T03:27:56;100878.63;;;24.67;41.46
23619;BME280;18207;32.078;34.818;2023-04-26T03:30:26;100876.19;;;24.66;41.66
23619;BME280;18207;32.078;34.818;2023-04-26T03:32:56;100879.34;;;24.64;41.74
23619;BME280;18207;32.078;34.818;2023-04-26T03:35:26;100874.53;;;24.65;41.54
23619;BME280;18207;32.078;34.818;2023-04-26T03:37:56;100877.69;;;24.63;41.49
23619;BME280;18207;32.078;34.818;2023-04-26T03:40:28;100874.44;;;24.61;41.50
23619;BME280;18207;32.078;34.818;2023-04-26T03:42:58;100878.78;;;24.59;41.39
23619;BME280;18207;32.078;34.818;2023-04-26T03:45:28;100877.03;;;24.54;41.66
23619;BME280;18207;32.078;34.818;2023-04-26T03:47:58;100885.00;;;24.52;41.36
23619;BME280;18207;32.078;34.818;2023-04-26T03:50:28;100890.53;;;24.49;41.57
23619;BME280;18207;32.078;34.818;2023-04-26T03:52:58;100887.28;;;24.47;41.59
23619;BME280;18207;32.078;34.818;2023-04-26T03:55:31;100884.81;;;24.45;41.56
23619;BME280;18207;32.078;34.818;2023-04-26T03:58:01;100884.31;;;24.43;41.67
23619;BME280;18207;32.078;34.818;2023-04-26T04:00:36;100892.31;;;24.41;41.76
23619;BME280;18207;32.078;34.818;2023-04-26T04:03:06;100895.13;;;24.41;41.93
23619;BME280;18207;32.078;34.818;2023-04-26T04:05:37;100886.69;;;24.41;41.71
23619;BME280;18207;32.078;34.818;2023-04-26T04:08:10;100901.09;;;24.40;41.97
23619;BME280;18207;32.078;34.818;2023-04-26T04:10:43;100893.50;;;24.40;41.97
23619;BME280;18207;32.078;34.818;2023-04-26T04:13:14;100883.41;;;24.39;41.87
23619;BME280;18207;32.078;34.818;2023-04-26T04:15:44;100891.84;;;24.39;42.04
23619;BME280;18207;32.078;34.818;2023-04-26T04:18:15;100890.69;;;24.40;42.08
23619;BME280;18207;32.078;34.818;2023-04-26T04:20:45;100895.13;;;24.41;41.89
23619;BME280;18207;32.078;34.818;2023-04-26T04:23:15;100889.50;;;24.41;41.63
23619;BME280;18207;32.078;34.818;2023-04-26T04:25:47;100891.94;;;24.43;41.69
23619;BME280;18207;32.078;34.818;2023-04-26T04:28:18;100893.63;;;24.44;41.82
23619;BME280;18207;32.078;34.818;2023-04-26T04:30:49;100886.81;;;24.45;42.01
23619;BME280;18207;32.078;34.818;2023-04-26T04:33:19;100892.91;;;24.47;42.10
23619;BME280;18207;32.078;34.818;2023-04-26T04:35:50;100890.53;;;24.49;42.01
23619;BME280;18207;32.078;34.818;2023-04-26T04:38:21;100893.00;;;24.50;41.80
23619;BME280;18207;32.078;34.818;2023-04-26T04:40:53;100889.47;;;24.53;42.20
23619;BME280;18207;32.078;34.818;2023-04-26T04:43:24;100892.72;;;24.55;42.11
23619;BME280;18207;32.078;34.818;2023-04-26T04:45:54;100887.19;;;24.59;42.40
23619;BME280;18207;32.078;34.818;2023-04-26T04:48:25;100896.94;;;24.61;42.10
23619;BME280;18207;32.078;34.818;2023-04-26T04:50:55;100894.22;;;24.65;42.28
23619;BME280;18207;32.078;34.818;2023-04-26T04:53:25;100891.88;;;24.67;42.19
23619;BME280;18207;32.078;34.818;2023-04-26T04:55:57;100892.78;;;24.71;42.24
23619;BME280;18207;32.078;34.818;2023-04-26T04:58:27;100894.88;;;24.74;42.27
23619;BME280;18207;32.078;34.818;2023-04-26T05:00:57;100887.69;;;24.76;42.21
23619;BME280;18207;32.078;34.818;2023-04-26T05:03:29;100894.16;;;24.77;42.15
23619;BME280;18207;32.078;34.818;2023-04-26T05:06:00;100890.97;;;24.78;42.22
23619;BME280;18207;32.078;34.818;2023-04-26T05:08:31;100886.16;;;24.79;42.23
23619;BME280;18207;32.078;34.818;2023-04-26T05:11:03;100894.69;;;24.82;42.29
23619;BME280;18207;32.078;34.818;2023-04-26T05:13:33;100893.50;;;24.83;42.28
23619;BME280;18207;32.078;34.818;2023-04-26T05:16:03;100895.22;;;24.88;42.34
23619;BME280;18207;32.078;34.818;2023-04-26T05:18:34;100898.16;;;24.91;42.57
23619;BME280;18207;32.078;34.818;2023-04-26T05:21:04;100890.63;;;24.95;42.33
23619;BME280;18207;32.078;34.818;2023-04-26T05:23:34;100899.16;;;24.99;42.27
23619;BME280;18207;32.078;34.818;2023-04-26T05:26:11;100898.06;;;25.03;42.44
23619;BME280;18207;32.078;34.818;2023-04-26T05:28:42;100898.16;;;25.06;42.79
23619;BME280;18207;32.078;34.818;2023-04-26T05:31:13;100895.13;;;25.11;42.49
23619;BME280;18207;32.078;34.818;2023-04-26T05:33:42;100895.19;;;25.15;42.44
23619;BME280;18207;32.078;34.818;2023-04-26T05:36:12;100900.19;;;25.21;42.43
23619;BME280;18207;32.078;34.818;2023-04-26T05:38:43;100901.13;;;25.25;42.81
23619;BME280;18207;32.078;34.818;2023-04-26T05:41:15;100899.66;;;25.31;42.70
23619;BME280;18207;32.078;34.818;2023-04-26T05:43:47;100899.34;;;25.36;42.49
23619;BME280;18207;32.078;34.818;2023-04-26T05:46:17;100886.19;;;25.40;42.61
23619;BME280;18207;32.078;34.818;2023-04-26T05:48:48;100892.38;;;25.46;42.59
23619;BME280;18207;32.078;34.818;2023-04-26T05:51:18;100896.09;;;25.50;42.56
23619;BME280;18207;32.078;34.818;2023-04-26T05:53:48;100900.63;;;25.54;42.58
23619;BME280;18207;32.078;34.818;2023-04-26T05:56:20;100904.78;;;25.60;42.56
23619;BME280;18207;32.078;34.818;2023-04-26T05:58:51;100901.69;;;25.65;42.61
23619;BME280;18207;32.078;34.818;2023-04-26T06:01:21;100902.22;;;25.71;42.47
23619;BME280;18207;32.078;34.818;2023-04-26T06:03:54;100907.56;;;25.76;42.49
23619;BME280;18207;32.078;34.818;2023-04-26T06:06:28;100912.94;;;25.81;42.44
23619;BME280;18207;32.078;34.818;2023-04-26T06:08:59;100909.47;;;25.87;42.33
23619;BME280;18207;32.078;34.818;2023-04-26T06:11:31;100905.22;;;25.93;42.12
23619;BME280;18207;32.078;34.818;2023-04-26T06:14:04;100905.75;;;25.98;41.94
23619;BME280;18207;32.078;34.818;2023-04-26T06:16:46;100899.78;;;26.03;42.09
23619;BME280;18207;32.078;34.818;2023-04-26T06:19:16;100896.31;;;26.10;41.88
23619;BME280;18207;32.078;34.818;2023-04-26T06:21:46;100909.75;;;26.16;41.71
23619;BME280;18207;32.078;34.818;2023-04-26T06:24:19;100908.66;;;26.21;41.81
23619;BME280;18207;32.078;34.818;2023-04-26T06:26:51;100907.16;;;26.27;41.74
23619;BME280;18207;32.078;34.818;2023-04-26T06:29:21;100901.59;;;26.30;41.59
23619;BME280;18207;32.078;34.818;2023-04-26T06:31:51;100906.50;;;26.33;41.48
23619;BME280;18207;32.078;34.818;2023-04-26T06:34:21;100893.72;;;26.39;41.48
23619;BME280;18207;32.078;34.818;2023-04-26T06:36:51;100887.84;;;26.44;41.36
23619;BME280;18207;32.078;34.818;2023-04-26T06:39:21;100889.16;;;26.50;41.30
23619;BME280;18207;32.078;34.818;2023-04-26T06:41:53;100898.56;;;26.58;41.37
23619;BME280;18207;32.078;34.818;2023-04-26T06:44:23;100902.72;;;26.64;41.36
23619;BME280;18207;32.078;34.818;2023-04-26T06:46:54;100898.88;;;26.72;41.36
23619;BME280;18207;32.078;34.818;2023-04-26T06:49:24;100886.53;;;26.80;41.30
23619;BME280;18207;32.078;34.818;2023-04-26T06:51:54;100886.19;;;26.84;41.06
23619;BME280;18207;32.078;34.818;2023-04-26T06:54:28;100891.63;;;26.93;41.29
23619;BME280;18207;32.078;34.818;2023-04-26T06:57:04;100883.28;;;27.00;41.02
23619;BME280;18207;32.078;34.818;2023-04-26T06:59:34;100875.34;;;27.05;40.96
23619;BME280;18207;32.078;34.818;2023-04-26T07:02:04;100877.47;;;27.12;40.67
23619;BME280;18207;32.078;34.818;2023-04-26T07:04:35;100873.13;;;27.18;40.62
23619;BME280;18207;32.078;34.818;2023-04-26T07:07:06;100880.91;;;27.24;40.63
23619;BME280;18207;32.078;34.818;2023-04-26T07:09:40;100870.13;;;27.30;40.70
23619;BME280;18207;32.078;34.818;2023-04-26T07:12:13;100874.28;;;27.36;40.41
23619;BME280;18207;32.078;34.818;2023-04-26T07:14:43;100871.91;;;27.41;40.39
23619;BME280;18207;32.078;34.818;2023-04-26T07:17:13;100875.66;;;27.49;40.64
23619;BME280;18207;32.078;34.818;2023-04-26T07:19:44;100875.38;;;27.54;40.13
23619;BME280;18207;32.078;34.818;2023-04-26T07:22:14;100878.69;;;27.59;40.09
23619;BME280;18207;32.078;34.818;2023-04-26T07:24:44;100882.81;;;27.65;40.39
23619;BME280;18207;32.078;34.818;2023-04-26T07:27:16;100888.97;;;27.71;40.03
23619;BME280;18207;32.078;34.818;2023-04-26T07:29:45;100880.16;;;27.75;40.00
23619;BME280;18207;32.078;34.818;2023-04-26T07:32:16;100883.84;;;27.79;40.05
23619;BME280;18207;32.078;34.818;2023-04-26T07:34:48;100882.31;;;27.85;40.18
23619;BME280;18207;32.078;34.818;2023-04-26T07:37:18;100880.38;;;27.89;39.89
23619;BME280;18207;32.078;34.818;2023-04-26T07:39:48;100883.28;;;27.96;39.58
23619;BME280;18207;32.078;34.818;2023-04-26T07:42:21;100870.84;;;28.01;39.45
23619;BME280;18207;32.078;34.818;2023-04-26T07:44:51;100868.47;;;28.06;39.57
23619;BME280;18207;32.078;34.818;2023-04-26T07:47:21;100863.31;;;28.12;39.57
23619;BME280;18207;32.078;34.818;2023-04-26T07:49:53;100868.66;;;28.17;39.32
23619;BME280;18207;32.078;34.818;2023-04-26T07:52:22;100864.66;;;28.21;39.17
23619;BME280;18207;32.078;34.818;2023-04-26T07:54:52;100861.50;;;28.26;38.86
23619;BME280;18207;32.078;34.818;2023-04-26T07:57:24;100862.38;;;28.30;39.03
23619;BME280;18207;32.078;34.818;2023-04-26T07:59:55;100857.56;;;28.34;38.75
23619;BME280;18207;32.078;34.818;2023-04-26T08:02:25;100852.38;;;28.40;39.13
23619;BME280;18207;32.078;34.818;2023-04-26T08:05:11;100849.22;;;28.45;38.98
23619;BME280;18207;32.078;34.818;2023-04-26T08:07:42;100850.88;;;28.49;39.05
23619;BME280;18207;32.078;34.818;2023-04-26T08:10:12;100853.34;;;28.54;39.10
23619;BME280;18207;32.078;34.818;2023-04-26T08:12:45;100851.41;;;28.58;39.14
23619;BME280;18207;32.078;34.818;2023-04-26T08:15:14;100850.22;;;28.63;39.37
23619;BME280;18207;32.078;34.818;2023-04-26T08:17:44;100846.63;;;28.65;39.23
23619;BME280;18207;32.078;34.818;2023-04-26T08:20:15;100845.06;;;28.71;39.31
23619;BME280;18207;32.078;34.818;2023-04-26T08:22:46;100853.59;;;28.75;38.96
23619;BME280;18207;32.078;34.818;2023-04-26T08:25:16;100849.59;;;28.79;38.84
23619;BME280;18207;32.078;34.818;2023-04-26T08:27:49;100849.69;;;28.83;39.00
23619;BME280;18207;32.078;34.818;2023-04-26T08:30:19;100846.06;;;28.86;39.02
23619;BME280;18207;32.078;34.818;2023-04-26T08:32:50;100851.75;;;28.89;38.71
23619;BME280;18207;32.078;34.818;2023-04-26T08:35:20;100853.81;;;28.92;38.82
23619;BME280;18207;32.078;34.818;2023-04-26T08:37:51;100838.88;;;28.95;38.91
23619;BME280;18207;32.078;34.818;2023-04-26T08:40:23;100838.09;;;28.98;38.55
23619;BME280;18207;32.078;34.818;2023-04-26T08:42:55;100841.34;;;29.00;38.77
23619;BME280;18207;32.078;34.818;2023-04-26T08:45:25;100829.25;;;29.03;38.92
23619;BME280;18207;32.078;34.818;2023-04-26T08:48:02;100828.47;;;29.06;38.98
23619;BME280;18207;32.078;34.818;2023-04-26T08:50:37;100826.88;;;29.09;39.00
23619;BME280;18207;32.078;34.818;2023-04-26T08:53:08;100828.09;;;29.11;38.92
23619;BME280;18207;32.078;34.818;2023-04-26T08:55:46;100825.69;;;29.13;38.77
23619;BME280;18207;32.078;34.818;2023-04-26T08:58:19;100828.97;;;29.15;38.42
23619;BME280;18207;32.078;34.818;2023-04-26T09:00:50;100825.31;;;29.18;38.36
23619;BME280;18207;32.078;34.818;2023-04-26T09:03:22;100816.44;;;29.20;38.49
23619;BME280;18207;32.078;34.818;2023-04-26T09:05:54;100813.22;;;29.21;38.48
23619;BME280;18207;32.078;34.818;2023-04-26T09:08:24;100815.28;;;29.24;37.96
23619;BME280;18207;32.078;34.818;2023-04-26T09:10:55;100814.88;;;29.26;38.42
23619;BME280;18207;32.078;34.818;2023-04-26T09:13:29;100816.09;;;29.28;38.50
23619;BME280;18207;32.078;34.818;2023-04-26T09:16:00;100808.03;;;29.30;38.33
23619;BME280;18207;32.078;34.818;2023-04-26T09:18:31;100815.75;;;29.33;37.78
23619;BME280;18207;32.078;34.818;2023-04-26T09:21:04;100802.00;;;29.35;37.77
23619;BME280;18207;32.078;34.818;2023-04-26T09:23:35;100808.09;;;29.37;37.94
23619;BME280;18207;32.078;34.818;2023-04-26T09:26:19;100806.53;;;29.40;38.05
23619;BME280;18207;32.078;34.818;2023-04-26T09:29:11;100816.25;;;29.42;37.95
23619;BME280;18207;32.078;34.818;2023-04-26T09:31:44;100808.94;;;29.41;38.03
23619;BME280;18207;32.078;34.818;2023-04-26T09:34:16;100808.19;;;29.44;37.75
23619;BME280;18207;32.078;34.818;2023-04-26T09:36:49;100804.13;;;29.45;37.95
23619;BME280;18207;32.078;34.818;2023-04-26T09:39:35;100792.41;;;29.47;37.65
23619;BME280;18207;32.078;34.818;2023-04-26T09:42:07;100800.09;;;29.46;37.43
23619;BME280;18207;32.078;34.818;2023-04-26T09:44:40;100800.09;;;29.46;37.49
23619;BME280;18207;32.078;34.818;2023-04-26T09:47:11;100796.88;;;29.48;37.30
23619;BME280;18207;32.078;34.818;2023-04-26T09:49:46;100787.16;;;29.49;37.58
23619;BME280;18207;32.078;34.818;2023-04-26T09:52:18;100803.31;;;29.48;37.31
23619;BME280;18207;32.078;34.818;2023-04-26T09:54:50;100800.50;;;29.48;37.37
23619;BME280;18207;32.078;34.818;2023-04-26T09:57:21;100802.13;;;29.49;36.81
23619;BME280;18207;32.078;34.818;2023-04-26T09:59:54;100793.63;;;29.49;37.04
23619;BME280;18207;32.078;34.818;2023-04-26T10:02:26;100807.00;;;29.49;37.27
23619;BME280;18207;32.078;34.818;2023-04-26T10:04:57;100794.81;;;29.48;36.90
23619;BME280;18207;32.078;34.818;2023-04-26T10:07:29;100795.66;;;29.49;36.66
23619;BME280;18207;32.078;34.818;2023-04-26T10:10:01;100795.66;;;29.49;36.64
23619;BME280;18207;32.078;34.818;2023-04-26T10:12:33;100794.44;;;29.50;37.05
23619;BME280;18207;32.078;34.818;2023-04-26T10:15:09;100791.63;;;29.50;36.46
23619;BME280;18207;32.078;34.818;2023-04-26T10:17:40;100790.78;;;29.49;36.45
23619;BME280;18207;32.078;34.818;2023-04-26T10:20:12;100791.63;;;29.50;36.60
23619;BME280;18207;32.078;34.818;2023-04-26T10:22:50;100784.75;;;29.51;36.37
23619;BME280;18207;32.078;34.818;2023-04-26T10:25:34;100787.59;;;29.51;36.74
23619;BME280;18207;32.078;34.818;2023-04-26T10:28:05;100789.22;;;29.52;36.25
23619;BME280;18207;32.078;34.818;2023-04-26T10:30:56;100785.16;;;29.52;36.56
23619;BME280;18207;32.078;34.818;2023-04-26T10:33:26;100784.34;;;29.52;36.13
23619;BME280;18207;32.078;34.818;2023-04-26T10:36:09;100781.09;;;29.53;36.19
23619;BME280;18207;32.078;34.818;2023-04-26T10:42:20;100780.31;;;29.53;35.96
23619;BME280;18207;32.078;34.818;2023-04-26T10:44:57;100787.59;;;29.54;36.41
23619;BME280;18207;32.078;34.818;2023-04-26T10:47:32;100779.91;;;29.54;35.87
23619;BME280;18207;32.078;34.818;2023-04-26T10:50:06;100773.03;;;29.55;35.50
23619;BME280;18207;32.078;34.818;2023-04-26T10:53:04;100778.69;;;29.55;35.92
23619;BME280;18207;32.078;34.818;2023-04-26T10:55:41;100773.03;;;29.55;35.87
23619;BME280;18207;32.078;34.818;2023-04-26T10:58:27;100780.31;;;29.56;35.92
23619;BME280;18207;32.078;34.818;2023-04-26T11:01:04;100764.53;;;29.55;35.68
23619;BME280;18207;32.078;34.818;2023-04-26T11:03:37;100771.81;;;29.56;35.58
23619;BME280;18207;32.078;34.818;2023-04-26T11:06:10;100764.13;;;29.57;35.69
23619;BME280;18207;32.078;34.818;2023-04-26T11:08:41;100770.63;;;29.57;35.77
23619;BME280;18207;32.078;34.818;2023-04-26T11:11:12;100775.88;;;29.59;36.15
23619;BME280;18207;32.078;34.818;2023-04-26T11:13:43;100769.41;;;29.58;35.70
23619;BME280;18207;32.078;34.818;2023-04-26T11:16:15;100769.41;;;29.58;36.13
23619;BME280;18207;32.078;34.818;2023-04-26T11:18:47;100756.06;;;29.59;35.68
23619;BME280;18207;32.078;34.818;2023-04-26T11:21:21;100763.34;;;29.60;35.98
23619;BME280;18207;32.078;34.818;2023-04-26T11:23:54;100760.09;;;29.61;35.78
23619;BME280;18207;32.078;34.818;2023-04-26T11:26:32;100760.94;;;29.62;35.58
23619;BME280;18207;32.078;34.818;2023-04-26T11:29:06;100760.09;;;29.61;35.53
23619;BME280;18207;32.078;34.818;2023-04-26T11:31:36;100747.97;;;29.61;35.33
23619;BME280;18207;32.078;34.818;2023-04-26T11:34:08;100746.34;;;29.63;35.69
23619;BME280;18207;32.078;34.818;2023-04-26T11:36:38;100741.53;;;29.64;35.80
23619;BME280;18207;32.078;34.818;2023-04-26T11:39:08;100738.69;;;29.64;35.53
23619;BME280;18207;32.078;34.818;2023-04-26T11:41:40;100745.97;;;29.65;35.76
23619;BME280;18207;32.078;34.818;2023-04-26T11:44:11;100743.94;;;29.65;35.76
23619;BME280;18207;32.078;34.818;2023-04-26T11:46:42;100745.97;;;29.65;35.65
23619;BME280;18207;32.078;34.818;2023-04-26T11:49:15;100739.91;;;29.66;35.82
23619;BME280;18207;32.078;34.818;2023-04-26T11:51:48;100743.53;;;29.67;35.63
23619;BME280;18207;32.078;34.818;2023-04-26T11:54:31;100735.44;;;29.65;35.60
23619;BME280;18207;32.078;34.818;2023-04-26T11:57:12;100740.69;;;29.63;35.41
23619;BME280;18207;32.078;34.818;2023-04-26T11:59:44;100744.72;;;29.62;35.52
23619;BME280;18207;32.078;34.818;2023-04-26T12:02:15;100738.69;;;29.60;35.03
23619;BME280;18207;32.078;34.818;2023-04-26T12:04:57;100744.34;;;29.60;35.48
23619;BME280;18207;32.078;34.818;2023-04-26T12:07:34;100738.25;;;29.58;35.22
23619;BME280;18207;32.078;34.818;2023-04-26T12:10:15;100739.06;;;29.59;35.35
23619;BME280;18207;32.078;34.818;2023-04-26T12:12:48;100740.66;;;29.56;35.45
23619;BME280;18207;32.078;34.818;2023-04-26T12:15:22;100746.34;;;29.56;35.40
23619;BME280;18207;32.078;34.818;2023-04-26T12:17:54;100744.72;;;29.55;35.26
23619;BME280;18207;32.078;34.818;2023-04-26T12:20:32;100741.06;;;29.55;35.58
23619;BME280;18207;32.078;34.818;2023-04-26T12:23:05;100738.63;;;29.53;35.64
23619;BME280;18207;32.078;34.818;2023-04-26T12:25:37;100744.28;;;29.53;35.56
23619;BME280;18207;32.078;34.818;2023-04-26T12:28:10;100739.81;;;29.52;35.66
23619;BME280;18207;32.078;34.818;2023-04-26T12:30:41;100734.56;;;29.51;35.67
23619;BME280;18207;32.078;34.818;2023-04-26T12:33:11;100729.72;;;29.52;35.10
23619;BME280;18207;32.078;34.818;2023-04-26T12:35:46;100730.94;;;29.51;35.31
23619;BME280;18207;32.078;34.818;2023-04-26T12:38:17;100737.41;;;29.51;35.53
23619;BME280;18207;32.078;34.818;2023-04-26T12:40:47;100732.94;;;29.50;35.66
23619;BME280;18207;32.078;34.818;2023-04-26T12:43:18;100734.97;;;29.50;35.37
23619;BME280;18207;32.078;34.818;2023-04-26T12:45:51;100730.50;;;29.49;35.18
23619;BME280;18207;32.078;34.818;2023-04-26T12:48:21;100734.56;;;29.48;35.12
23619;BME280;18207;32.078;34.818;2023-04-26T12:50:52;100736.97;;;29.46;34.84
23619;BME280;18207;32.078;34.818;2023-04-26T12:53:22;100728.88;;;29.44;35.21
23619;BME280;18207;32.078;34.818;2023-04-26T12:55:53;100728.44;;;29.42;34.98
23619;BME280;18207;32.078;34.818;2023-04-26T12:58:22;100735.31;;;29.41;35.25
23619;BME280;18207;32.078;34.818;2023-04-26T13:00:53;100729.63;;;29.38;34.95
23619;BME280;18207;32.078;34.818;2023-04-26T13:03:24;100733.22;;;29.35;34.75
23619;BME280;18207;32.078;34.818;2023-04-26T13:05:56;100723.09;;;29.34;35.25
23619;BME280;18207;32.078;34.818;2023-04-26T13:08:25;100717.41;;;29.30;34.78